CDG8733 ZSJN-ZLXY
Flight info
| Callsign | CDG8733 |
|---|---|
| Flight time | 1h 23m |
| Altitude | 32100 |
| Route | EXUVU5T EXUVU W4 LIMGI W152 SHX |
| Aircraft | B738/M-SDE2E3FGHIRWXY/LB1 |
Departure
| Time | 2026-04-25 17:51 |
|---|---|
| Airport | Jinan Yaoqiang International Airport (ZSJN) |
Arrival
| Time | 2026-04-25 19:14 |
|---|---|
| Airport | Xi'an Xianyang International Airport (ZLXY) |
| Time | Latitude | Longitude | Altitude | Speed | Heading |
|---|---|---|---|---|---|
| 2026-04-25 17:22 | 36.85182 | 117.20887 | 83 ft | 0 kts | 269° |
| 2026-04-25 17:40 | 36.85182 | 117.20898 | 83 ft | 2 kts | 269° |
| 2026-04-25 17:40 | 36.85182 | 117.20918 | 83 ft | 2 kts | 269° |
| 2026-04-25 17:40 | 36.85183 | 117.20937 | 83 ft | 2 kts | 269° |
| 2026-04-25 17:40 | 36.85183 | 117.20955 | 83 ft | 2 kts | 269° |
| 2026-04-25 17:41 | 36.85179 | 117.20973 | 83 ft | 2 kts | 310° |
| 2026-04-25 17:41 | 36.85167 | 117.20984 | 83 ft | 2 kts | 345° |
| 2026-04-25 17:41 | 36.85159 | 117.20985 | 83 ft | 1 kts | 5° |
| 2026-04-25 17:41 | 36.85154 | 117.20985 | 83 ft | 0 kts | 1° |
| 2026-04-25 17:44 | 36.85200 | 117.20985 | 83 ft | 13 kts | 359° |
| 2026-04-25 17:44 | 36.85286 | 117.21022 | 83 ft | 13 kts | 62° |
| 2026-04-25 17:44 | 36.85323 | 117.21126 | 83 ft | 12 kts | 64° |
| 2026-04-25 17:44 | 36.85360 | 117.21219 | 83 ft | 11 kts | 62° |
| 2026-04-25 17:45 | 36.85393 | 117.21314 | 83 ft | 15 kts | 76° |
| 2026-04-25 17:45 | 36.85410 | 117.21355 | 83 ft | 16 kts | 35° |
| 2026-04-25 17:45 | 36.85596 | 117.21375 | 83 ft | 15 kts | 359° |
| 2026-04-25 17:45 | 36.85702 | 117.21374 | 83 ft | 15 kts | 0° |
| 2026-04-25 17:46 | 36.85830 | 117.21374 | 83 ft | 19 kts | 359° |
| 2026-04-25 17:46 | 36.85964 | 117.21374 | 83 ft | 18 kts | 0° |
| 2026-04-25 17:46 | 36.86094 | 117.21375 | 83 ft | 18 kts | 0° |
| 2026-04-25 17:46 | 36.86249 | 117.21374 | 83 ft | 26 kts | 359° |
| 2026-04-25 17:47 | 36.86446 | 117.21373 | 83 ft | 28 kts | 360° |
| 2026-04-25 17:47 | 36.86638 | 117.21374 | 83 ft | 27 kts | 0° |
| 2026-04-25 17:47 | 36.86825 | 117.21374 | 83 ft | 26 kts | 360° |
| 2026-04-25 17:47 | 36.87003 | 117.21374 | 83 ft | 25 kts | 359° |
| 2026-04-25 17:48 | 36.87320 | 117.21381 | 83 ft | 17 kts | 18° |
| 2026-04-25 17:48 | 36.87345 | 117.21498 | 83 ft | 13 kts | 90° |
| 2026-04-25 17:48 | 36.87331 | 117.21600 | 83 ft | 9 kts | 155° |
| 2026-04-25 17:49 | 36.87322 | 117.21601 | 83 ft | 0 kts | 186° |
| 2026-04-25 17:49 | 36.87254 | 117.21598 | 83 ft | 34 kts | 180° |
| 2026-04-25 17:49 | 36.86982 | 117.21597 | 83 ft | 4 kts | 180° |
| 2026-04-25 17:50 | 36.86965 | 117.21597 | 83 ft | 5 kts | 181° |
| 2026-04-25 17:50 | 36.86964 | 117.21597 | 83 ft | 0 kts | 181° |
| 2026-04-25 17:50 | 36.86948 | 117.21596 | 83 ft | 16 kts | 180° |
| 2026-04-25 17:51 | 36.86589 | 117.21598 | 83 ft | 85 kts | 180° |
| 2026-04-25 17:51 | 36.85782 | 117.21600 | 83 ft | 142 kts | 180° |
| 2026-04-25 17:51 | 36.84665 | 117.21596 | 264 ft | 172 kts | 181° |
| 2026-04-25 17:51 | 36.83432 | 117.21581 | 796 ft | 182 kts | 184° |
| 2026-04-25 17:52 | 36.82136 | 117.21532 | 1407 ft | 194 kts | 184° |
| 2026-04-25 17:52 | 36.81245 | 117.21514 | 1911 ft | 194 kts | 184° |
| 2026-04-25 17:52 | 36.79467 | 117.20871 | 2410 ft | 217 kts | 218° |
| 2026-04-25 17:52 | 36.78560 | 117.19350 | 3044 ft | 228 kts | 248° |
| 2026-04-25 17:53 | 36.78405 | 117.17344 | 3574 ft | 248 kts | 275° |
| 2026-04-25 17:53 | 36.78845 | 117.15178 | 3967 ft | 268 kts | 284° |
| 2026-04-25 17:53 | 36.79507 | 117.13122 | 5167 ft | 253 kts | 290° |
| 2026-04-25 17:53 | 36.80212 | 117.11162 | 6067 ft | 247 kts | 292° |
| 2026-04-25 17:54 | 36.80881 | 117.09229 | 6828 ft | 247 kts | 291° |
| 2026-04-25 17:54 | 36.81524 | 117.07243 | 7500 ft | 250 kts | 291° |
| 2026-04-25 17:54 | 36.82166 | 117.05225 | 8143 ft | 253 kts | 294° |
| 2026-04-25 17:54 | 36.83062 | 117.03330 | 8776 ft | 255 kts | 313° |
| 2026-04-25 17:55 | 36.84476 | 117.01973 | 9212 ft | 265 kts | 330° |
| 2026-04-25 17:55 | 36.86147 | 117.00877 | 9653 ft | 276 kts | 333° |
| 2026-04-25 17:55 | 36.87849 | 116.99787 | 10282 ft | 279 kts | 333° |
| 2026-04-25 17:55 | 36.89613 | 116.98605 | 10619 ft | 295 kts | 332° |
| 2026-04-25 17:56 | 36.91453 | 116.97324 | 11023 ft | 308 kts | 331° |
| 2026-04-25 17:56 | 36.93341 | 116.95984 | 11361 ft | 322 kts | 331° |
| 2026-04-25 17:56 | 36.95286 | 116.94596 | 12043 ft | 325 kts | 331° |
| 2026-04-25 17:56 | 36.97254 | 116.93192 | 12696 ft | 329 kts | 331° |
| 2026-04-25 17:57 | 36.99256 | 116.91764 | 13438 ft | 331 kts | 331° |
| 2026-04-25 17:57 | 37.01254 | 116.90340 | 14197 ft | 332 kts | 330° |
| 2026-04-25 17:57 | 37.03262 | 116.88909 | 14871 ft | 336 kts | 330° |
| 2026-04-25 17:57 | 37.03921 | 116.88439 | 15058 ft | 338 kts | 330° |
| 2026-04-25 17:58 | 37.07263 | 116.85839 | 16205 ft | 342 kts | 321° |
| 2026-04-25 17:58 | 37.08925 | 116.83691 | 16781 ft | 348 kts | 306° |
| 2026-04-25 17:58 | 37.10048 | 116.81061 | 17470 ft | 351 kts | 293° |
| 2026-04-25 17:58 | 37.10742 | 116.78071 | 18088 ft | 357 kts | 283° |
| 2026-04-25 17:59 | 37.10955 | 116.74979 | 18683 ft | 364 kts | 270° |
| 2026-04-25 17:59 | 37.10489 | 116.71891 | 19303 ft | 370 kts | 256° |
| 2026-04-25 17:59 | 37.09587 | 116.68823 | 19894 ft | 375 kts | 252° |
| 2026-04-25 17:59 | 37.08570 | 116.65829 | 20486 ft | 378 kts | 251° |
| 2026-04-25 18:00 | 37.07499 | 116.62815 | 21095 ft | 379 kts | 251° |
| 2026-04-25 18:00 | 37.06436 | 116.59837 | 21632 ft | 381 kts | 251° |
| 2026-04-25 18:00 | 37.05366 | 116.56814 | 22200 ft | 383 kts | 252° |
| 2026-04-25 18:00 | 37.04288 | 116.53732 | 22708 ft | 385 kts | 252° |
| 2026-04-25 18:01 | 37.03223 | 116.50661 | 23261 ft | 386 kts | 252° |
| 2026-04-25 18:01 | 37.02167 | 116.47595 | 23717 ft | 390 kts | 252° |
| 2026-04-25 18:01 | 37.01095 | 116.44473 | 24187 ft | 393 kts | 252° |
| 2026-04-25 18:01 | 37.00017 | 116.41330 | 24631 ft | 396 kts | 252° |
| 2026-04-25 18:02 | 36.98937 | 116.38181 | 25009 ft | 401 kts | 253° |
| 2026-04-25 18:02 | 36.97836 | 116.34976 | 25479 ft | 403 kts | 252° |
| 2026-04-25 18:02 | 36.96717 | 116.31724 | 25932 ft | 406 kts | 252° |
| 2026-04-25 18:02 | 36.95603 | 116.28489 | 26383 ft | 409 kts | 252° |
| 2026-04-25 18:03 | 36.94481 | 116.25231 | 26821 ft | 411 kts | 252° |
| 2026-04-25 18:03 | 36.93356 | 116.21970 | 27203 ft | 415 kts | 253° |
| 2026-04-25 18:03 | 36.92202 | 116.18627 | 27661 ft | 416 kts | 253° |
| 2026-04-25 18:03 | 36.91058 | 116.15314 | 27961 ft | 421 kts | 253° |
| 2026-04-25 18:04 | 36.89902 | 116.11974 | 28441 ft | 421 kts | 253° |
| 2026-04-25 18:04 | 36.88731 | 116.08598 | 28855 ft | 423 kts | 253° |
| 2026-04-25 18:04 | 36.87565 | 116.05243 | 29383 ft | 421 kts | 253° |
| 2026-04-25 18:04 | 36.86415 | 116.01941 | 29948 ft | 418 kts | 253° |
| 2026-04-25 18:05 | 36.85254 | 115.98611 | 30476 ft | 416 kts | 253° |
| 2026-04-25 18:05 | 36.84107 | 115.95321 | 31003 ft | 413 kts | 254° |
| 2026-04-25 18:05 | 36.82968 | 115.92057 | 31506 ft | 410 kts | 253° |
| 2026-04-25 18:05 | 36.81844 | 115.88839 | 31941 ft | 408 kts | 254° |
| 2026-04-25 18:06 | 36.80697 | 115.85546 | 31965 ft | 411 kts | 254° |
| 2026-04-25 18:06 | 36.78415 | 115.79014 | 31958 ft | 408 kts | 254° |
| 2026-04-25 18:07 | 36.76132 | 115.72496 | 31949 ft | 409 kts | 254° |
| 2026-04-25 18:07 | 36.73839 | 115.65973 | 31938 ft | 410 kts | 254° |
| 2026-04-25 18:08 | 36.71554 | 115.59494 | 31941 ft | 407 kts | 254° |
| 2026-04-25 18:08 | 36.69281 | 115.53052 | 31941 ft | 409 kts | 253° |
| 2026-04-25 18:09 | 36.66994 | 115.46587 | 31942 ft | 409 kts | 253° |
| 2026-04-25 18:09 | 36.64695 | 115.40111 | 31945 ft | 408 kts | 253° |
| 2026-04-25 18:10 | 36.62402 | 115.33650 | 31936 ft | 409 kts | 253° |
| 2026-04-25 18:10 | 36.60118 | 115.27225 | 31939 ft | 409 kts | 253° |
| 2026-04-25 18:11 | 36.57822 | 115.20786 | 31936 ft | 408 kts | 252° |
| 2026-04-25 18:11 | 36.55181 | 115.14510 | 31919 ft | 418 kts | 242° |
| 2026-04-25 18:12 | 36.51308 | 115.08993 | 31938 ft | 429 kts | 232° |
| 2026-04-25 18:12 | 36.46965 | 115.03896 | 31933 ft | 430 kts | 230° |
| 2026-04-25 18:13 | 36.42538 | 114.98837 | 31935 ft | 431 kts | 230° |
| 2026-04-25 18:13 | 36.38223 | 114.93792 | 31945 ft | 426 kts | 232° |
| 2026-04-25 18:14 | 36.34567 | 114.88172 | 31944 ft | 415 kts | 244° |
| 2026-04-25 18:14 | 36.33031 | 114.85130 | 31937 ft | 413 kts | 246° |
| 2026-04-25 18:14 | 36.30178 | 114.78998 | 31939 ft | 412 kts | 248° |
| 2026-04-25 18:15 | 36.27345 | 114.72839 | 31945 ft | 411 kts | 248° |
| 2026-04-25 18:15 | 36.24434 | 114.66737 | 31943 ft | 411 kts | 246° |
| 2026-04-25 18:16 | 36.21497 | 114.60718 | 31948 ft | 413 kts | 246° |
| 2026-04-25 18:17 | 36.17024 | 114.51611 | 31956 ft | 412 kts | 246° |
| 2026-04-25 18:17 | 36.14052 | 114.45572 | 31949 ft | 412 kts | 246° |
| 2026-04-25 18:18 | 36.11073 | 114.39522 | 31947 ft | 412 kts | 246° |
| 2026-04-25 18:18 | 36.08076 | 114.33447 | 31945 ft | 414 kts | 245° |
| 2026-04-25 18:19 | 36.05086 | 114.27394 | 31956 ft | 414 kts | 245° |
| 2026-04-25 18:19 | 36.02109 | 114.21381 | 31949 ft | 412 kts | 245° |
| 2026-04-25 18:20 | 35.99116 | 114.15344 | 31959 ft | 413 kts | 245° |
| 2026-04-25 18:20 | 35.96122 | 114.09316 | 31957 ft | 413 kts | 245° |
| 2026-04-25 18:21 | 35.93126 | 114.03297 | 31955 ft | 412 kts | 245° |
| 2026-04-25 18:21 | 35.90122 | 113.97277 | 31961 ft | 412 kts | 245° |
| 2026-04-25 18:22 | 35.87132 | 113.91296 | 31979 ft | 411 kts | 245° |
| 2026-04-25 18:22 | 35.84132 | 113.85305 | 31968 ft | 412 kts | 245° |
| 2026-04-25 18:23 | 35.81142 | 113.79340 | 31975 ft | 412 kts | 245° |
| 2026-04-25 18:23 | 35.78115 | 113.73313 | 31983 ft | 413 kts | 245° |
| 2026-04-25 18:24 | 35.75097 | 113.67321 | 32011 ft | 413 kts | 245° |
| 2026-04-25 18:24 | 35.72087 | 113.61352 | 32041 ft | 412 kts | 245° |
| 2026-04-25 18:25 | 35.69056 | 113.55350 | 32077 ft | 410 kts | 245° |
| 2026-04-25 18:25 | 35.66047 | 113.49393 | 32109 ft | 410 kts | 245° |
| 2026-04-25 18:26 | 35.63021 | 113.43413 | 32108 ft | 412 kts | 245° |
| 2026-04-25 18:26 | 35.60004 | 113.37444 | 32100 ft | 410 kts | 246° |
| 2026-04-25 18:27 | 35.57050 | 113.31461 | 32099 ft | 410 kts | 246° |
| 2026-04-25 18:27 | 35.54082 | 113.25395 | 32090 ft | 410 kts | 246° |
| 2026-04-25 18:28 | 35.51158 | 113.19444 | 32080 ft | 411 kts | 246° |
| 2026-04-25 18:28 | 35.48207 | 113.13473 | 32062 ft | 409 kts | 246° |
| 2026-04-25 18:29 | 35.43764 | 113.04513 | 32046 ft | 409 kts | 245° |
| 2026-04-25 18:30 | 35.37847 | 112.92623 | 32038 ft | 410 kts | 245° |
| 2026-04-25 18:30 | 35.34893 | 112.86699 | 32043 ft | 410 kts | 246° |
| 2026-04-25 18:31 | 35.31920 | 112.80746 | 32053 ft | 409 kts | 246° |
| 2026-04-25 18:31 | 35.28949 | 112.74813 | 32062 ft | 407 kts | 245° |
| 2026-04-25 18:32 | 35.25994 | 112.68911 | 32061 ft | 410 kts | 245° |
| 2026-04-25 18:32 | 35.23031 | 112.63010 | 32058 ft | 408 kts | 245° |
| 2026-04-25 18:33 | 35.20056 | 112.57087 | 32050 ft | 409 kts | 245° |
| 2026-04-25 18:33 | 35.17123 | 112.51188 | 32042 ft | 409 kts | 246° |
| 2026-04-25 18:34 | 35.14180 | 112.45237 | 32036 ft | 407 kts | 246° |
| 2026-04-25 18:34 | 35.11252 | 112.39325 | 32026 ft | 409 kts | 246° |
| 2026-04-25 18:35 | 35.08302 | 112.33391 | 32017 ft | 408 kts | 245° |
| 2026-04-25 18:35 | 35.05371 | 112.27513 | 32013 ft | 408 kts | 245° |
| 2026-04-25 18:36 | 35.02427 | 112.21614 | 32012 ft | 409 kts | 245° |
| 2026-04-25 18:36 | 34.99463 | 112.15688 | 32020 ft | 409 kts | 245° |
| 2026-04-25 18:37 | 34.96514 | 112.09803 | 32032 ft | 407 kts | 245° |
| 2026-04-25 18:37 | 34.93563 | 112.03918 | 32038 ft | 409 kts | 245° |
| 2026-04-25 18:38 | 34.90604 | 111.98032 | 32038 ft | 408 kts | 245° |
| 2026-04-25 18:38 | 34.87648 | 111.92168 | 32031 ft | 408 kts | 245° |
| 2026-04-25 18:39 | 34.84685 | 111.86247 | 32023 ft | 409 kts | 245° |
| 2026-04-25 18:39 | 34.81770 | 111.80382 | 32016 ft | 407 kts | 245° |
| 2026-04-25 18:40 | 34.78817 | 111.74442 | 32008 ft | 410 kts | 245° |
| 2026-04-25 18:40 | 34.75890 | 111.68573 | 32015 ft | 409 kts | 245° |
| 2026-04-25 18:41 | 34.72939 | 111.62669 | 32016 ft | 409 kts | 245° |
| 2026-04-25 18:41 | 34.69981 | 111.56767 | 32022 ft | 409 kts | 245° |
| 2026-04-25 18:42 | 34.68023 | 111.52864 | 32021 ft | 407 kts | 245° |
| 2026-04-25 18:42 | 34.64085 | 111.45023 | 32028 ft | 406 kts | 245° |
| 2026-04-25 18:43 | 34.61131 | 111.39148 | 32045 ft | 410 kts | 245° |
| 2026-04-25 18:43 | 34.58158 | 111.33242 | 32054 ft | 409 kts | 245° |
| 2026-04-25 18:44 | 34.55198 | 111.27384 | 32074 ft | 408 kts | 245° |
| 2026-04-25 18:44 | 34.52227 | 111.21529 | 32101 ft | 412 kts | 245° |
| 2026-04-25 18:45 | 34.49260 | 111.15674 | 32089 ft | 407 kts | 245° |
| 2026-04-25 18:45 | 34.46268 | 111.09770 | 32073 ft | 410 kts | 245° |
| 2026-04-25 18:46 | 34.43279 | 111.03885 | 32055 ft | 409 kts | 245° |
| 2026-04-25 18:46 | 34.40322 | 110.98016 | 32064 ft | 408 kts | 245° |
| 2026-04-25 18:47 | 34.37392 | 110.92144 | 32064 ft | 411 kts | 245° |
| 2026-04-25 18:47 | 34.34437 | 110.86234 | 32068 ft | 409 kts | 245° |
| 2026-04-25 18:48 | 34.31484 | 110.80336 | 32071 ft | 411 kts | 245° |
| 2026-04-25 18:48 | 34.28540 | 110.74479 | 32078 ft | 408 kts | 245° |
| 2026-04-25 18:49 | 34.25565 | 110.68565 | 32085 ft | 411 kts | 245° |
| 2026-04-25 18:49 | 34.22596 | 110.62679 | 32085 ft | 410 kts | 245° |
| 2026-04-25 18:50 | 34.19632 | 110.56809 | 32081 ft | 412 kts | 245° |
| 2026-04-25 18:50 | 34.16663 | 110.50942 | 32077 ft | 410 kts | 245° |
| 2026-04-25 18:51 | 34.14669 | 110.47005 | 32082 ft | 412 kts | 245° |
| 2026-04-25 18:51 | 34.10696 | 110.39128 | 32074 ft | 411 kts | 245° |
| 2026-04-25 18:52 | 34.07742 | 110.33238 | 32084 ft | 412 kts | 245° |
| 2026-04-25 18:52 | 34.04769 | 110.27316 | 32090 ft | 416 kts | 245° |
| 2026-04-25 18:53 | 34.01778 | 110.21378 | 32085 ft | 413 kts | 245° |
| 2026-04-25 18:53 | 33.98788 | 110.15455 | 32058 ft | 414 kts | 245° |
| 2026-04-25 18:54 | 33.95829 | 110.09615 | 31331 ft | 404 kts | 245° |
| 2026-04-25 18:54 | 33.94381 | 110.06765 | 30993 ft | 399 kts | 245° |
| 2026-04-25 18:54 | 33.92928 | 110.03893 | 30524 ft | 407 kts | 245° |
| 2026-04-25 18:55 | 33.91496 | 110.00967 | 30075 ft | 406 kts | 248° |
| 2026-04-25 18:55 | 33.90342 | 109.97914 | 29723 ft | 394 kts | 256° |
| 2026-04-25 18:55 | 33.89654 | 109.94801 | 28973 ft | 385 kts | 266° |
| 2026-04-25 18:55 | 33.89452 | 109.91659 | 28215 ft | 374 kts | 275° |
| 2026-04-25 18:56 | 33.89607 | 109.88565 | 27383 ft | 368 kts | 280° |
| 2026-04-25 18:56 | 33.90030 | 109.85571 | 26563 ft | 362 kts | 287° |
| 2026-04-25 18:56 | 33.90715 | 109.82714 | 25843 ft | 354 kts | 291° |
| 2026-04-25 18:56 | 33.91530 | 109.79974 | 25255 ft | 344 kts | 293° |
| 2026-04-25 18:57 | 33.92366 | 109.77359 | 24769 ft | 337 kts | 293° |
| 2026-04-25 18:57 | 33.93218 | 109.74721 | 24300 ft | 343 kts | 293° |
| 2026-04-25 18:57 | 33.94074 | 109.72027 | 23802 ft | 343 kts | 292° |
| 2026-04-25 18:57 | 33.94355 | 109.71127 | 23636 ft | 339 kts | 292° |
| 2026-04-25 18:58 | 33.95680 | 109.66810 | 22883 ft | 325 kts | 292° |
| 2026-04-25 18:58 | 33.97257 | 109.61601 | 21951 ft | 333 kts | 291° |
| 2026-04-25 18:58 | 33.98025 | 109.59037 | 21501 ft | 323 kts | 291° |
| 2026-04-25 18:59 | 33.99557 | 109.53909 | 20594 ft | 333 kts | 291° |
| 2026-04-25 18:59 | 34.01072 | 109.48810 | 19695 ft | 316 kts | 291° |
| 2026-04-25 19:00 | 34.02584 | 109.43717 | 18788 ft | 324 kts | 291° |
| 2026-04-25 19:00 | 34.03331 | 109.41189 | 18546 ft | 324 kts | 291° |
| 2026-04-25 19:01 | 34.04866 | 109.36000 | 17866 ft | 328 kts | 291° |
| 2026-04-25 19:01 | 34.05617 | 109.33457 | 17434 ft | 325 kts | 290° |
| 2026-04-25 19:01 | 34.06376 | 109.30885 | 16960 ft | 323 kts | 290° |
| 2026-04-25 19:01 | 34.07118 | 109.28367 | 16495 ft | 321 kts | 290° |
| 2026-04-25 19:02 | 34.08599 | 109.23338 | 15590 ft | 316 kts | 290° |
| 2026-04-25 19:02 | 34.09322 | 109.20879 | 15141 ft | 315 kts | 290° |
| 2026-04-25 19:02 | 34.10054 | 109.18387 | 14691 ft | 313 kts | 290° |
| 2026-04-25 19:03 | 34.11015 | 109.15115 | 14095 ft | 311 kts | 290° |
| 2026-04-25 19:03 | 34.12209 | 109.11045 | 13348 ft | 309 kts | 290° |
| 2026-04-25 19:03 | 34.12915 | 109.08636 | 12914 ft | 307 kts | 290° |
| 2026-04-25 19:04 | 34.14328 | 109.03811 | 12036 ft | 304 kts | 290° |
| 2026-04-25 19:04 | 34.15025 | 109.01427 | 11601 ft | 303 kts | 290° |
| 2026-04-25 19:05 | 34.16419 | 108.96648 | 10747 ft | 299 kts | 289° |
| 2026-04-25 19:05 | 34.17771 | 108.92005 | 10194 ft | 286 kts | 289° |
| 2026-04-25 19:05 | 34.18418 | 108.89778 | 10060 ft | 276 kts | 289° |
| 2026-04-25 19:06 | 34.19041 | 108.87632 | 9725 ft | 274 kts | 289° |
| 2026-04-25 19:06 | 34.20298 | 108.83305 | 8998 ft | 274 kts | 289° |
| 2026-04-25 19:06 | 34.20933 | 108.81122 | 8635 ft | 272 kts | 289° |
| 2026-04-25 19:07 | 34.22171 | 108.76840 | 7968 ft | 270 kts | 288° |
| 2026-04-25 19:07 | 34.22782 | 108.74717 | 7612 ft | 270 kts | 288° |
| 2026-04-25 19:08 | 34.24010 | 108.70462 | 6926 ft | 268 kts | 288° |
| 2026-04-25 19:08 | 34.24630 | 108.68325 | 6598 ft | 267 kts | 288° |
| 2026-04-25 19:09 | 34.26419 | 108.62138 | 5927 ft | 250 kts | 287° |
| 2026-04-25 19:09 | 34.26613 | 108.61463 | 5844 ft | 249 kts | 287° |
| 2026-04-25 19:09 | 34.28950 | 108.56880 | 5114 ft | 243 kts | 335° |
| 2026-04-25 19:10 | 34.30567 | 108.56570 | 4898 ft | 237 kts | 7° |
| 2026-04-25 19:10 | 34.32081 | 108.57220 | 4742 ft | 227 kts | 35° |
| 2026-04-25 19:10 | 34.33236 | 108.58476 | 4545 ft | 220 kts | 49° |
| 2026-04-25 19:10 | 34.34214 | 108.59845 | 4369 ft | 212 kts | 51° |
| 2026-04-25 19:11 | 34.35157 | 108.61173 | 4189 ft | 204 kts | 50° |
| 2026-04-25 19:11 | 34.36082 | 108.62432 | 3935 ft | 198 kts | 49° |
| 2026-04-25 19:11 | 34.36977 | 108.63648 | 3694 ft | 184 kts | 50° |
| 2026-04-25 19:11 | 34.37797 | 108.64776 | 3430 ft | 173 kts | 51° |
| 2026-04-25 19:12 | 34.38565 | 108.65829 | 3228 ft | 162 kts | 50° |
| 2026-04-25 19:12 | 34.39291 | 108.66827 | 3067 ft | 154 kts | 51° |
| 2026-04-25 19:12 | 34.40011 | 108.67811 | 2826 ft | 157 kts | 50° |
| 2026-04-25 19:12 | 34.40727 | 108.68790 | 2607 ft | 152 kts | 50° |
| 2026-04-25 19:13 | 34.41430 | 108.69750 | 2429 ft | 153 kts | 49° |
| 2026-04-25 19:13 | 34.42146 | 108.70704 | 2198 ft | 152 kts | 49° |
| 2026-04-25 19:13 | 34.42841 | 108.71665 | 2003 ft | 150 kts | 50° |
| 2026-04-25 19:13 | 34.43515 | 108.72619 | 1816 ft | 150 kts | 48° |
| 2026-04-25 19:14 | 34.44217 | 108.73551 | 1634 ft | 151 kts | 50° |
| 2026-04-25 19:14 | 34.44452 | 108.73881 | 1582 ft | 150 kts | 50° |
| 2026-04-25 19:14 | 34.45318 | 108.75087 | 1575 ft | 65 kts | 51° |
| 2026-04-25 19:14 | 34.45527 | 108.75375 | 1575 ft | 34 kts | 46° |
| 2026-04-25 19:15 | 34.45609 | 108.75501 | 1575 ft | 1 kts | 63° |
| 2026-04-25 19:15 | 34.45620 | 108.75528 | 1575 ft | 9 kts | 64° |
| 2026-04-25 19:15 | 34.45647 | 108.75604 | 1575 ft | 9 kts | 68° |
| 2026-04-25 19:15 | 34.45670 | 108.75677 | 1575 ft | 8 kts | 82° |
| 2026-04-25 19:16 | 34.45679 | 108.75755 | 1575 ft | 12 kts | 82° |
| 2026-04-25 19:16 | 34.45648 | 108.75841 | 1575 ft | 13 kts | 191° |
| 2026-04-25 19:16 | 34.45588 | 108.75767 | 1575 ft | 12 kts | 230° |
| 2026-04-25 19:16 | 34.45525 | 108.75680 | 1575 ft | 15 kts | 229° |
| 2026-04-25 19:17 | 34.45433 | 108.75552 | 1575 ft | 25 kts | 229° |
| 2026-04-25 19:17 | 34.45312 | 108.75410 | 1575 ft | 21 kts | 182° |
| 2026-04-25 19:17 | 34.45193 | 108.75504 | 1575 ft | 20 kts | 139° |
| 2026-04-25 19:17 | 34.45089 | 108.75616 | 1575 ft | 19 kts | 137° |
| 2026-04-25 19:18 | 34.44991 | 108.75729 | 1575 ft | 19 kts | 136° |
| 2026-04-25 19:18 | 34.44879 | 108.75834 | 1575 ft | 24 kts | 139° |
| 2026-04-25 19:18 | 34.44778 | 108.75820 | 1575 ft | 13 kts | 219° |
| 2026-04-25 19:18 | 34.44707 | 108.75777 | 1574 ft | 11 kts | 159° |
| 2026-04-25 19:19 | 34.44651 | 108.75832 | 1574 ft | 10 kts | 139° |
| 2026-04-25 19:19 | 34.44593 | 108.75873 | 1574 ft | 9 kts | 155° |
| 2026-04-25 19:19 | 34.44537 | 108.75903 | 1574 ft | 7 kts | 154° |
| 2026-04-25 19:19 | 34.44533 | 108.75906 | 1574 ft | 0 kts | 154° |